Time,TemperatureF,DewpointF,PressureIn,WindDirection,WindDirectionDegrees,WindSpeedMPH,WindSpeedGustMPH,Humidity,HourlyPrecipIn,Conditions,Clouds,dailyrainin,SoftwareType,DateUTC
2013-02-20 00:00:00,31.6,9.4,29.73,NE,56,0.0,0.0,39,0.00,,,0.00,Wunderground v.1.15,2013-02-20 07:00:00,
2013-02-20 00:30:00,30.7,11.8,29.72,NE,56,0.0,0.0,45,0.00,,,0.00,Wunderground v.1.15,2013-02-20 07:30:00,
2013-02-20 01:00:00,30.6,12.2,29.71,NE,56,0.0,1.0,46,0.00,,,0.00,Wunderground v.1.15,2013-02-20 08:00:00,
2013-02-20 01:30:00,31.6,14.6,29.69,NE,56,0.0,0.0,49,0.00,,,0.00,Wunderground v.1.15,2013-02-20 08:30:00,
2013-02-20 02:00:00,-999.9,-99.9,29.54,North,32767,-999.0,0.0,255,-99.99,,,0.00,Wunderground v.1.15,2013-02-20 09:00:00,
2013-02-20 02:30:00,-999.9,-99.9,29.56,North,32767,-999.0,0.0,255,-99.99,,,0.00,Wunderground v.1.15,2013-02-20 09:30:00,
2013-02-20 03:30:00,-999.9,-99.9,29.52,North,32767,-999.0,0.0,255,-99.99,,,0.00,Wunderground v.1.15,2013-02-20 10:30:00,
2013-02-20 04:00:00,-999.9,-99.9,29.51,North,32767,-999.0,0.0,255,-99.99,,,0.00,Wunderground v.1.15,2013-02-20 11:00:00,
2013-02-20 04:30:00,-999.9,-99.9,29.52,North,32767,-999.0,0.0,255,-99.99,,,0.00,Wunderground v.1.15,2013-02-20 11:30:00,
2013-02-20 05:00:00,-999.9,-99.9,29.52,North,32767,-999.0,0.0,255,-99.99,,,0.00,Wunderground v.1.15,2013-02-20 12:00:00,
2013-02-20 05:30:00,-999.9,-99.9,29.57,North,32767,-999.0,0.0,255,-99.99,,,0.00,Wunderground v.1.15,2013-02-20 12:30:00,
2013-02-20 06:00:00,-999.9,-99.9,29.54,North,32767,-999.0,0.0,255,-99.99,,,0.00,Wunderground v.1.15,2013-02-20 13:00:00,
2013-02-20 06:30:00,-999.9,-99.9,29.58,North,32767,-999.0,0.0,255,-99.99,,,0.00,Wunderground v.1.15,2013-02-20 13:30:00,
2013-02-20 07:00:00,28.8,12.9,29.67,NE,52,0.0,0.0,51,0.00,,,0.00,Wunderground v.1.15,2013-02-20 14:00:00,
2013-02-20 07:30:00,30.6,13.2,29.72,SE,145,1.0,2.0,48,0.00,,,0.00,Wunderground v.1.15,2013-02-20 14:30:00,
2013-02-20 08:00:00,27.2,20.0,29.76,ESE,113,1.0,2.0,74,0.00,,,0.00,Wunderground v.1.15,2013-02-20 15:00:00,
2013-02-20 08:30:00,25.7,19.5,29.78,NE,45,11.0,14.0,77,0.00,,,0.00,Wunderground v.1.15,2013-02-20 15:30:00,
2013-02-20 09:00:00,26.4,18.9,29.78,NE,45,10.0,10.0,73,0.00,,,0.00,Wunderground v.1.15,2013-02-20 16:00:00,
2013-02-20 09:30:00,28.1,17.1,29.74,NNE,27,5.0,7.0,63,0.00,,,0.00,Wunderground v.1.15,2013-02-20 16:30:00,
2013-02-20 10:00:00,27.5,20.9,29.74,South,184,2.0,2.0,76,0.00,,,0.00,Wunderground v.1.15,2013-02-20 17:00:00,
2013-02-20 10:30:00,26.6,21.6,29.73,South,182,2.0,2.0,81,0.00,,,0.00,Wunderground v.1.15,2013-02-20 17:30:00,
2013-02-20 11:00:00,-999.9,-99.9,29.64,North,32767,-999.0,0.0,255,-99.99,,,0.00,Wunderground v.1.15,2013-02-20 18:00:00,
2013-02-20 11:30:00,-999.9,-99.9,29.67,North,32767,-999.0,0.0,255,-99.99,,,0.02,Wunderground v.1.15,2013-02-20 18:30:00,
2013-02-20 12:00:00,25.7,21.3,29.72,South,171,3.0,7.0,83,0.04,,,0.05,Wunderground v.1.15,2013-02-20 19:00:00,
2013-02-20 12:30:00,27.2,20.6,29.72,NE,38,3.0,3.0,76,0.00,,,0.06,Wunderground v.1.15,2013-02-20 19:30:00,
2013-02-20 13:00:00,28.1,19.9,29.68,NE,52,6.0,7.0,71,0.00,,,0.06,Wunderground v.1.15,2013-02-20 20:00:00,
2013-02-20 13:30:00,29.5,18.1,29.66,NE,37,4.0,4.0,62,0.00,,,0.06,Wunderground v.1.15,2013-02-20 20:30:00,
2013-02-20 14:00:00,34.0,18.2,29.61,NE,51,0.0,0.0,52,0.00,,,0.06,Wunderground v.1.15,2013-02-20 21:00:00,
2013-02-20 14:30:00,31.2,14.7,29.59,South,184,2.0,2.0,50,0.00,,,0.06,Wunderground v.1.15,2013-02-20 21:30:00,
2013-02-20 15:00:00,29.7,15.5,29.63,South,185,4.0,4.0,55,0.00,,,0.06,Wunderground v.1.15,2013-02-20 22:00:00,
2013-02-20 15:30:00,27.5,21.8,29.69,SSW,200,12.0,12.0,79,0.00,,,0.06,Wunderground v.1.15,2013-02-20 22:30:00,
2013-02-20 16:00:00,24.2,20.9,29.17,SSE,165,5.0,5.0,87,0.00,,,0.06,Wunderground v.1.15,2013-02-20 23:00:00,
2013-02-20 16:30:00,25.7,22.4,29.75,ENE,73,1.0,3.0,87,0.11,,,0.10,Wunderground v.1.15,2013-02-20 23:30:00,
2013-02-20 17:00:00,27.0,23.4,29.73,NE,52,0.0,0.0,86,0.00,,,0.11,Wunderground v.1.15,2013-02-21 00:00:00,
2013-02-20 17:30:00,27.0,21.9,29.70,NE,51,0.0,1.0,81,0.00,,,0.11,Wunderground v.1.15,2013-02-21 00:30:00,
2013-02-20 18:00:00,27.0,20.4,29.70,NE,41,0.0,0.0,76,0.00,,,0.11,Wunderground v.1.15,2013-02-21 01:00:00,
2013-02-20 18:30:00,26.3,19.5,29.71,NE,41,0.0,0.0,75,0.00,,,0.11,Wunderground v.1.15,2013-02-21 01:30:00,
2013-02-20 19:00:00,24.5,18.6,29.74,NE,41,0.0,0.0,78,0.00,,,0.11,Wunderground v.1.15,2013-02-21 02:00:00,
2013-02-20 19:30:00,23.3,15.6,29.75,NE,41,0.0,0.0,72,0.00,,,0.11,Wunderground v.1.15,2013-02-21 02:30:00,
2013-02-20 20:00:00,21.9,13.0,29.80,NE,41,0.0,1.0,68,0.00,,,0.11,Wunderground v.1.15,2013-02-21 03:00:00,
2013-02-20 20:30:00,20.0,12.1,29.82,NE,41,0.0,0.0,71,0.00,,,0.11,Wunderground v.1.15,2013-02-21 03:30:00,
2013-02-20 21:00:00,20.6,12.4,29.81,NE,41,0.0,0.0,70,0.00,,,0.11,Wunderground v.1.15,2013-02-21 04:00:00,
2013-02-20 21:30:00,-999.9,-99.9,29.68,North,32767,-999.0,0.0,255,-99.99,,,0.11,Wunderground v.1.15,2013-02-21 04:30:00,
2013-02-20 22:00:00,17.5,9.4,29.83,NE,41,2.0,2.0,70,0.00,,,0.11,Wunderground v.1.15,2013-02-21 05:00:00,
2013-02-20 22:30:00,-999.9,-99.9,29.20,North,32767,-999.0,0.0,255,-99.99,,,0.11,Wunderground v.1.15,2013-02-21 05:30:00,
2013-02-20 23:00:00,-999.9,-99.9,29.20,North,32767,-999.0,0.0,255,-99.99,,,0.11,Wunderground v.1.15,2013-02-21 06:00:00,
2013-02-20 23:30:00,-999.9,-99.9,29.71,North,32767,-999.0,0.0,255,-99.99,,,0.00,Wunderground v.1.15,2013-02-21 06:30:00,